createdAt,value
2019-04-20T00:00:14.516Z,8
2019-04-20T00:01:03.557Z,7.9
2019-04-20T00:01:56.984Z,7.9
2019-04-20T00:02:48.389Z,7.9
2019-04-20T00:03:37.906Z,7.9
2019-04-20T00:04:28.637Z,7.9
2019-04-20T00:05:14.846Z,7.9
2019-04-20T00:06:03.597Z,7.9
2019-04-20T00:06:54.770Z,7.8
2019-04-20T00:07:43.824Z,7.8
2019-04-20T00:08:36.447Z,7.8
2019-04-20T00:09:26.434Z,7.8
2019-04-20T00:10:18.281Z,7.8
2019-04-20T00:11:09.596Z,7.8
2019-04-20T00:12:03.707Z,7.8
2019-04-20T00:12:58.108Z,7.8
2019-04-20T00:13:44.256Z,7.8
2019-04-20T00:14:27.599Z,7.8
2019-04-20T00:15:13.588Z,7.8
2019-04-20T00:16:04.094Z,7.7
2019-04-20T00:16:54.480Z,7.7
2019-04-20T00:17:48.519Z,7.7
2019-04-20T00:18:41.054Z,7.7
2019-04-20T00:19:31.796Z,7.7
2019-04-20T00:20:20.413Z,7.7
2019-04-20T00:21:08.526Z,7.7
2019-04-20T00:22:00.209Z,7.7
2019-04-20T00:22:47.598Z,7.7
2019-04-20T00:23:40.375Z,7.6
2019-04-20T00:24:30.932Z,7.6
2019-04-20T00:25:20.150Z,7.6
2019-04-20T00:26:14.568Z,7.6
2019-04-20T00:27:13.289Z,7.6
2019-04-20T00:28:04.201Z,7.6
2019-04-20T00:28:55.715Z,7.6
2019-04-20T00:29:44.670Z,7.5
2019-04-20T00:30:38.414Z,7.5
2019-04-20T00:31:23.134Z,7.5
2019-04-20T00:32:05.928Z,7.5
2019-04-20T00:32:55.410Z,7.5
2019-04-20T00:33:46.762Z,7.5
2019-04-20T00:34:30.397Z,7.5
2019-04-20T00:35:16.867Z,7.5
2019-04-20T00:36:07.198Z,7.5
2019-04-20T00:36:56.239Z,7.5
2019-04-20T00:37:46.674Z,7.4
2019-04-20T00:38:42.465Z,7.4
2019-04-20T00:39:26.082Z,7.4
2019-04-20T00:40:17.085Z,7.4
2019-04-20T00:41:10.101Z,7.4
2019-04-20T00:42:02.260Z,7.4
2019-04-20T00:42:50.565Z,7.4
2019-04-20T00:43:38.544Z,7.4
2019-04-20T00:44:30.264Z,7.4
2019-04-20T00:45:21.675Z,7.4
2019-04-20T00:46:13.722Z,7.4
2019-04-20T00:47:08.318Z,7.3
2019-04-20T00:47:54.136Z,7.3
2019-04-20T00:48:45.000Z,7.3
2019-04-20T00:49:38.641Z,7.3
2019-04-20T00:50:34.035Z,7.3
2019-04-20T00:51:23.723Z,7.3
2019-04-20T00:52:23.599Z,7.3
2019-04-20T00:52:53.870Z,7.3
2019-04-20T00:53:41.267Z,7.2
2019-04-20T00:54:26.398Z,7.2
2019-04-20T00:55:16.986Z,7.2
2019-04-20T00:56:07.453Z,7.2
2019-04-20T00:57:09.179Z,7.2
2019-04-20T00:57:51.739Z,7.2
2019-04-20T00:58:48.960Z,7.2
2019-04-20T00:59:39.233Z,7.2
2019-04-20T01:00:30.895Z,7.2
2019-04-20T01:01:24.524Z,7.2
2019-04-20T01:02:12.457Z,7.2
2019-04-20T01:02:58.231Z,7.1
2019-04-20T01:03:49.317Z,7.1
2019-04-20T01:04:47.411Z,7.1
2019-04-20T01:05:27.449Z,7.1
2019-04-20T01:06:21.979Z,7.1
2019-04-20T01:07:08.123Z,7.1
2019-04-20T01:07:51.923Z,7.1
2019-04-20T01:08:36.117Z,7.1
2019-04-20T01:09:26.474Z,7.1
2019-04-20T01:10:17.275Z,7.1
2019-04-20T01:11:06.191Z,7.1
2019-04-20T01:11:56.578Z,7
2019-04-20T01:12:47.436Z,7
2019-04-20T01:13:41.985Z,7
2019-04-20T01:14:30.781Z,7
2019-04-20T01:15:24.277Z,7
2019-04-20T01:16:18.388Z,7
2019-04-20T01:17:00.401Z,7
2019-04-20T01:17:46.327Z,7
2019-04-20T01:18:36.343Z,7
2019-04-20T01:19:26.316Z,6.9
2019-04-20T01:20:16.319Z,6.9
2019-04-20T01:21:12.790Z,6.9
2019-04-20T01:22:02.225Z,6.9
2019-04-20T01:22:54.481Z,6.9
2019-04-20T01:23:42.795Z,6.9
2019-04-20T01:24:31.242Z,6.9
2019-04-20T01:25:21.723Z,6.9
2019-04-20T01:26:11.395Z,6.9
2019-04-20T01:27:00.697Z,6.9
2019-04-20T01:28:04.195Z,6.9
2019-04-20T01:28:50.978Z,6.9
2019-04-20T01:29:35.476Z,6.8
2019-04-20T01:30:24.562Z,6.8
2019-04-20T01:31:14.576Z,6.8
2019-04-20T01:32:10.303Z,6.8
2019-04-20T01:32:59.541Z,6.8
2019-04-20T01:33:45.972Z,6.8
2019-04-20T01:34:38.837Z,6.7
2019-04-20T01:35:35.431Z,6.7
2019-04-20T01:36:25.254Z,6.7
2019-04-20T01:37:12.973Z,6.7
2019-04-20T01:38:06.665Z,6.7
2019-04-20T01:38:51.153Z,6.7
2019-04-20T01:39:34.198Z,6.7
2019-04-20T01:40:16.957Z,6.7
2019-04-20T01:41:07.419Z,6.7
2019-04-20T01:41:57.847Z,6.7
2019-04-20T01:42:46.721Z,6.7
2019-04-20T01:43:37.435Z,6.7
2019-04-20T01:44:33.120Z,6.7
2019-04-20T01:45:22.314Z,6.7
2019-04-20T01:46:11.779Z,6.6
2019-04-20T01:47:00.002Z,6.6
2019-04-20T01:47:51.246Z,6.6
2019-04-20T01:48:38.611Z,6.6
2019-04-20T01:49:31.623Z,6.6
2019-04-20T01:50:22.468Z,6.6
2019-04-20T01:51:11.707Z,6.6
2019-04-20T01:52:06.979Z,6.6
2019-04-20T01:52:57.648Z,6.6
2019-04-20T01:53:50.181Z,6.6
2019-04-20T01:54:45.155Z,6.6
2019-04-20T01:55:32.762Z,6.5
2019-04-20T01:56:21.591Z,6.5
2019-04-20T01:57:04.579Z,6.5
2019-04-20T01:58:04.722Z,6.5
2019-04-20T01:58:51.925Z,6.5
2019-04-20T01:59:34.344Z,6.5
2019-04-20T02:00:23.170Z,6.5
2019-04-20T02:01:13.408Z,6.4
2019-04-20T02:02:02.974Z,6.4
2019-04-20T02:02:52.006Z,6.4
2019-04-20T02:03:41.678Z,6.4
2019-04-20T02:04:30.698Z,6.4
2019-04-20T02:05:22.732Z,6.4
2019-04-20T02:06:11.405Z,6.4
2019-04-20T02:06:59.648Z,6.4
2019-04-20T02:07:49.264Z,6.4
2019-04-20T02:08:36.347Z,6.4
2019-04-20T02:09:29.007Z,6.4
2019-04-20T02:10:18.222Z,6.4
2019-04-20T02:11:08.032Z,6.3
2019-04-20T02:12:04.716Z,6.3
2019-04-20T02:12:48.788Z,6.3
2019-04-20T02:13:44.285Z,6.3
2019-04-20T02:14:34.114Z,6.3
2019-04-20T02:15:22.877Z,6.3
2019-04-20T02:16:15.663Z,6.3
2019-04-20T02:17:04.135Z,6.3
2019-04-20T02:17:59.252Z,6.3
2019-04-20T02:18:48.598Z,6.2
2019-04-20T02:19:37.577Z,6.2
2019-04-20T02:20:37.299Z,6.2
2019-04-20T02:21:23.163Z,6.2
2019-04-20T02:22:09.579Z,6.2
2019-04-20T02:22:58.717Z,6.2
2019-04-20T02:23:46.139Z,6.2
2019-04-20T02:24:27.797Z,6.2
2019-04-20T02:25:16.418Z,6.2
2019-04-20T02:26:07.115Z,6.2
2019-04-20T02:26:57.815Z,6.2
2019-04-20T02:27:51.671Z,6.2
2019-04-20T02:29:00.363Z,6.2
2019-04-20T02:29:50.084Z,6.1
2019-04-20T02:30:55.092Z,6.1
2019-04-20T02:32:54.962Z,6.1
2019-04-20T02:33:25.637Z,6.1
2019-04-20T02:34:03.297Z,6.1
2019-04-20T02:35:52.590Z,6.1
2019-04-20T02:37:07.517Z,6.1
2019-04-20T02:37:35.596Z,6.1
2019-04-20T02:38:21.396Z,6.1
2019-04-20T02:39:20.750Z,6
2019-04-20T02:39:59.713Z,6
2019-04-20T02:40:50.139Z,6
2019-04-20T02:41:34.732Z,6
2019-04-20T02:42:33.733Z,6
2019-04-20T02:43:05.204Z,6
2019-04-20T02:44:58.482Z,6
2019-04-20T02:45:43.751Z,6
2019-04-20T02:46:40.616Z,6
2019-04-20T02:47:29.941Z,6
2019-04-20T02:49:19.239Z,5.9
2019-04-20T02:49:56.271Z,5.9
2019-04-20T02:50:49.269Z,5.9
2019-04-20T02:51:40.685Z,5.9
2019-04-20T02:53:19.875Z,5.9
2019-04-20T02:54:14.780Z,5.9
2019-04-20T02:55:00.149Z,5.9
2019-04-20T02:55:47.438Z,5.9
2019-04-20T02:56:38.927Z,5.9
2019-04-20T02:57:30.298Z,5.8
2019-04-20T02:58:14.682Z,5.8
2019-04-20T02:59:01.789Z,5.8
2019-04-20T03:00:05.170Z,5.8
2019-04-20T03:00:37.841Z,5.8
2019-04-20T03:01:26.543Z,5.8
2019-04-20T03:02:14.592Z,5.8
2019-04-20T03:02:59.479Z,5.8
2019-04-20T03:03:44.859Z,5.8
2019-04-20T03:04:36.941Z,5.8
2019-04-20T03:05:29.196Z,5.7
2019-04-20T03:06:19.376Z,5.8
2019-04-20T03:07:11.446Z,5.7
2019-04-20T03:08:02.096Z,5.7
2019-04-20T03:08:56.159Z,5.7
2019-04-20T03:09:43.233Z,5.7
2019-04-20T03:10:45.947Z,5.7
2019-04-20T03:11:29.196Z,5.7
2019-04-20T03:12:07.811Z,5.7
2019-04-20T03:13:07.781Z,5.7
2019-04-20T03:13:57.682Z,5.7
2019-04-20T03:14:42.170Z,5.7
2019-04-20T03:15:37.354Z,5.7
2019-04-20T03:16:24.033Z,5.7
2019-04-20T03:17:20.115Z,5.6
2019-04-20T03:18:08.678Z,5.6
2019-04-20T03:18:53.224Z,5.6
2019-04-20T03:19:40.732Z,5.6
2019-04-20T03:20:41.562Z,5.6
2019-04-20T03:21:31.267Z,5.6
2019-04-20T03:22:20.869Z,5.6
2019-04-20T03:24:05.300Z,5.6
2019-04-20T03:24:48.406Z,5.6
2019-04-20T03:25:35.580Z,5.6
2019-04-20T03:26:27.331Z,5.6
2019-04-20T03:27:15.636Z,5.6
2019-04-20T03:28:10.204Z,5.6
2019-04-20T03:28:53.717Z,5.5
2019-04-20T03:29:46.759Z,5.5
2019-04-20T03:31:03.683Z,5.5
2019-04-20T03:32:03.003Z,5.5
2019-04-20T03:32:57.179Z,5.5
2019-04-20T03:35:32.785Z,5.5
2019-04-20T03:36:33.380Z,5.5
2019-04-20T03:37:19.168Z,5.5
2019-04-20T03:38:04.472Z,5.5
2019-04-20T03:38:57.154Z,5.4
2019-04-20T03:39:40.279Z,5.4
2019-04-20T03:40:29.136Z,5.4
2019-04-20T03:41:17.387Z,5.4
2019-04-20T03:41:58.764Z,5.4
2019-04-20T03:42:46.630Z,5.4
2019-04-20T03:43:37.052Z,5.4
2019-04-20T03:44:30.648Z,5.4
2019-04-20T03:45:19.882Z,5.4
2019-04-20T03:46:10.899Z,5.4
2019-04-20T03:47:01.149Z,5.4
2019-04-20T03:47:55.770Z,5.4
2019-04-20T03:48:54.502Z,5.3
2019-04-20T03:49:47.902Z,5.3
2019-04-20T03:50:40.690Z,5.3
2019-04-20T03:51:28.811Z,5.3
2019-04-20T03:52:13.010Z,5.3
2019-04-20T03:53:08.236Z,5.3
2019-04-20T03:53:54.917Z,5.3
2019-04-20T03:54:38.523Z,5.3
2019-04-20T03:55:35.303Z,5.3
2019-04-20T03:56:27.819Z,5.3
2019-04-20T03:57:20.827Z,5.2
2019-04-20T03:58:02.488Z,5.2
2019-04-20T03:58:50.145Z,5.2
2019-04-20T03:59:48.322Z,5.2
2019-04-20T04:00:35.327Z,5.2
2019-04-20T04:01:35.664Z,5.2
2019-04-20T04:02:29.533Z,5.2
2019-04-20T04:03:12.204Z,5.2
2019-04-20T04:03:58.290Z,5.2
2019-04-20T04:04:43.702Z,5.2
2019-04-20T04:05:30.934Z,5.2
2019-04-20T04:06:17.426Z,5.2
2019-04-20T04:07:01.061Z,5.2
2019-04-20T04:07:57.989Z,5.1
2019-04-20T04:08:43.607Z,5.1
2019-04-20T04:09:36.941Z,5.1
2019-04-20T04:10:30.084Z,5.1
2019-04-20T04:11:19.840Z,5.1
2019-04-20T04:12:08.819Z,5.1
2019-04-20T04:12:48.403Z,5.1
2019-04-20T04:13:37.708Z,5.1
2019-04-20T04:14:26.643Z,5.1
2019-04-20T04:15:16.881Z,5.1
2019-04-20T04:16:09.945Z,5.1
2019-04-20T04:16:59.606Z,5.1
2019-04-20T04:17:48.204Z,5.1
2019-04-20T04:18:40.743Z,5
2019-04-20T04:19:31.580Z,5
2019-04-20T04:20:19.639Z,5
2019-04-20T04:21:11.348Z,5
2019-04-20T04:22:08.503Z,5
2019-04-20T04:23:03.542Z,5
2019-04-20T04:23:54.138Z,5
2019-04-20T04:24:36.623Z,4.9
2019-04-20T04:25:28.424Z,4.9
2019-04-20T04:26:25.781Z,4.9
2019-04-20T04:27:08.714Z,4.9
2019-04-20T04:28:01.179Z,4.9
2019-04-20T04:28:53.099Z,4.9
2019-04-20T04:29:46.556Z,4.9
2019-04-20T04:30:29.239Z,4.9
2019-04-20T04:31:25.763Z,4.9
2019-04-20T04:32:18.537Z,4.9
2019-04-20T04:33:31.992Z,4.9
2019-04-20T04:34:07.055Z,4.9
2019-04-20T04:34:42.877Z,4.9
2019-04-20T04:35:29.592Z,4.9
2019-04-20T04:36:20.621Z,4.9
2019-04-20T04:37:16.133Z,4.9
2019-04-20T04:38:05.646Z,4.9
2019-04-20T04:38:56.892Z,4.9
2019-04-20T04:39:48.313Z,4.8
2019-04-20T04:40:39.014Z,4.8
2019-04-20T04:41:26.420Z,4.8
2019-04-20T04:42:16.517Z,4.8
2019-04-20T04:43:10.017Z,4.8
2019-04-20T04:43:53.160Z,4.8
2019-04-20T04:44:39.837Z,4.8
2019-04-20T04:45:19.028Z,4.8
2019-04-20T04:46:07.862Z,4.8
2019-04-20T04:47:00.140Z,4.8
2019-04-20T04:47:47.318Z,4.8
2019-04-20T04:48:41.002Z,4.8
2019-04-20T04:49:33.280Z,4.8
2019-04-20T04:50:21.389Z,4.8
2019-04-20T04:51:13.527Z,4.8
2019-04-20T04:52:03.833Z,4.7
2019-04-20T04:52:56.387Z,4.7
2019-04-20T04:53:47.422Z,4.7
2019-04-20T04:54:37.433Z,4.7
2019-04-20T04:55:25.566Z,4.7
2019-04-20T04:56:11.534Z,4.7
2019-04-20T04:56:58.613Z,4.7
2019-04-20T04:57:47.364Z,4.7
2019-04-20T04:58:36.693Z,4.7
2019-04-20T04:59:27.528Z,4.7
2019-04-20T05:00:22.502Z,4.7
2019-04-20T05:01:11.590Z,4.7
2019-04-20T05:01:58.063Z,4.7
2019-04-20T05:02:53.717Z,4.7
2019-04-20T05:04:02.514Z,4.7
2019-04-20T05:04:48.132Z,4.7
2019-04-20T05:05:35.405Z,4.7
2019-04-20T05:06:21.845Z,4.7
2019-04-20T05:07:07.124Z,4.7
2019-04-20T05:07:55.462Z,4.7
2019-04-20T05:08:43.516Z,4.7
2019-04-20T05:09:27.635Z,4.7
2019-04-20T05:10:18.900Z,4.7
2019-04-20T05:11:06.971Z,4.7
2019-04-20T05:12:03.949Z,4.8
2019-04-20T05:12:47.003Z,4.7
2019-04-20T05:13:44.689Z,4.7
2019-04-20T05:14:40.431Z,4.7
2019-04-20T05:15:32.047Z,4.8
2019-04-20T05:16:18.813Z,4.8
2019-04-20T05:17:11.029Z,4.7
2019-04-20T05:18:05.626Z,4.8
2019-04-20T05:18:56.398Z,4.8
2019-04-20T05:19:47.311Z,4.7
2019-04-20T05:20:33.686Z,4.8
2019-04-20T05:21:25.190Z,4.8
2019-04-20T05:22:13.418Z,4.8
2019-04-20T05:23:03.675Z,4.8
2019-04-20T05:23:47.475Z,4.8
2019-04-20T05:24:42.252Z,4.8
2019-04-20T05:25:30.761Z,4.8
2019-04-20T05:26:24.863Z,4.8
2019-04-20T05:27:18.887Z,4.8
2019-04-20T05:28:05.129Z,4.8
2019-04-20T05:28:45.705Z,4.8
2019-04-20T05:29:30.351Z,4.8
2019-04-20T05:30:17.993Z,4.8
2019-04-20T05:31:09.366Z,4.8
2019-04-20T05:32:03.399Z,4.8
2019-04-20T05:32:54.687Z,4.8
2019-04-20T05:34:00.854Z,4.8
2019-04-20T05:34:52.217Z,4.8
2019-04-20T05:35:35.092Z,4.9
2019-04-20T05:36:21.688Z,4.9
2019-04-20T05:37:27.045Z,4.9
2019-04-20T05:38:11.211Z,4.9
2019-04-20T05:39:01.776Z,4.9
2019-04-20T05:39:49.907Z,4.9
2019-04-20T05:40:38.157Z,4.9
2019-04-20T05:41:21.151Z,4.9
2019-04-20T05:42:17.538Z,4.9
2019-04-20T05:43:05.622Z,4.9
2019-04-20T05:43:50.461Z,4.9
2019-04-20T05:44:49.695Z,4.9
2019-04-20T05:45:28.206Z,5
2019-04-20T05:46:30.498Z,5
2019-04-20T05:47:16.809Z,5
2019-04-20T05:48:02.077Z,5
2019-04-20T05:48:56.004Z,5.1
2019-04-20T05:49:44.889Z,5.1
2019-04-20T05:50:36.156Z,5.1
2019-04-20T05:51:29.291Z,5.1
2019-04-20T05:52:28.758Z,5.2
2019-04-20T05:53:12.804Z,5.2
2019-04-20T05:53:56.291Z,5.2
2019-04-20T05:54:50.460Z,5.2
2019-04-20T05:55:38.336Z,5.3
2019-04-20T05:56:30.322Z,5.3
2019-04-20T05:57:24.871Z,5.3
2019-04-20T05:58:08.619Z,5.3
2019-04-20T05:58:56.305Z,5.3
2019-04-20T05:59:55.561Z,5.3
2019-04-20T06:00:40.040Z,5.3
2019-04-20T06:01:31.629Z,5.4
2019-04-20T06:02:22.463Z,5.4
2019-04-20T06:03:05.382Z,5.4
2019-04-20T06:03:57.579Z,5.5
2019-04-20T06:04:59.519Z,5.5
2019-04-20T06:05:44.753Z,5.6
2019-04-20T06:06:31.448Z,5.5
2019-04-20T06:07:20.818Z,5.6
2019-04-20T06:08:04.935Z,5.7
2019-04-20T06:09:05.049Z,5.7
2019-04-20T06:09:46.087Z,5.7
2019-04-20T06:10:37.824Z,5.8
2019-04-20T06:11:31.400Z,5.8
2019-04-20T06:12:19.632Z,5.9
2019-04-20T06:13:06.152Z,5.9
2019-04-20T06:13:46.931Z,6
2019-04-20T06:14:42.393Z,6
2019-04-20T06:15:38.133Z,6
2019-04-20T06:16:27.510Z,6
2019-04-20T06:17:15.567Z,6.1
2019-04-20T06:18:06.115Z,6.1
2019-04-20T06:19:06.223Z,6.2
2019-04-20T06:19:43.629Z,6.2
2019-04-20T06:20:40.927Z,6.3
2019-04-20T06:21:36.436Z,6.4
2019-04-20T06:22:25.970Z,6.4
2019-04-20T06:23:11.708Z,6.4
2019-04-20T06:24:01.660Z,6.5
2019-04-20T06:24:51.447Z,6.5
2019-04-20T06:25:43.638Z,6.6
2019-04-20T06:27:14.249Z,6.7
2019-04-20T06:28:06.183Z,6.7
2019-04-20T06:28:49.792Z,6.8
2019-04-20T06:29:45.396Z,6.8
2019-04-20T06:30:30.542Z,6.9
2019-04-20T06:31:29.837Z,7
2019-04-20T06:32:26.952Z,7
2019-04-20T06:33:12.667Z,7
2019-04-20T06:34:16.082Z,7.1
2019-04-20T06:34:41.167Z,7.1
2019-04-20T06:35:51.445Z,7.2
2019-04-20T06:36:31.993Z,7.2
2019-04-20T06:37:15.732Z,7.3
2019-04-20T06:38:26.200Z,7.3
2019-04-20T06:39:01.652Z,7.4
2019-04-20T06:39:46.279Z,7.4
2019-04-20T06:40:53.810Z,7.5
2019-04-20T06:41:41.432Z,7.6
2019-04-20T06:42:27.517Z,7.7
2019-04-20T06:43:03.904Z,7.7
2019-04-20T06:44:00.422Z,7.8
2019-04-20T06:44:42.519Z,7.9
2019-04-20T06:45:43.644Z,8
2019-04-20T06:46:28.198Z,8.1
2019-04-20T06:47:17.465Z,8.1
2019-04-20T06:48:13.379Z,8.2
2019-04-20T06:48:58.415Z,8.3
2019-04-20T06:49:41.882Z,8.4
2019-04-20T06:50:33.659Z,8.4
2019-04-20T06:51:27.467Z,8.5
2019-04-20T06:52:36.583Z,8.6
2019-04-20T06:53:15.860Z,8.6
2019-04-20T06:53:52.375Z,8.7
2019-04-20T06:54:48.110Z,8.8
2019-04-20T06:55:42.630Z,8.9
2019-04-20T06:56:28.872Z,8.9
2019-04-20T06:57:17.006Z,9
2019-04-20T06:58:09.322Z,9
2019-04-20T06:59:03.514Z,9.1
2019-04-20T06:59:45.683Z,9.2
2019-04-20T07:00:41.686Z,9.3
2019-04-20T07:01:28.820Z,9.4
2019-04-20T07:02:21.655Z,9.5
2019-04-20T07:03:04.346Z,9.6
2019-04-20T07:04:10.598Z,9.6
2019-04-20T07:04:59.189Z,9.8
2019-04-20T07:05:30.059Z,9.9
2019-04-20T07:06:43.312Z,10
2019-04-20T07:07:18.277Z,10.1
2019-04-20T07:08:08.073Z,10.2
2019-04-20T07:09:05.969Z,10.3
2019-04-20T07:10:08.250Z,10.3
2019-04-20T07:10:43.677Z,10.4
2019-04-20T07:11:27.864Z,10.4
2019-04-20T07:12:16.615Z,10.5
2019-04-20T07:13:02.542Z,10.6
2019-04-20T07:13:46.726Z,10.7
2019-04-20T07:14:40.194Z,10.9
2019-04-20T07:15:33.344Z,11
2019-04-20T07:16:27.829Z,11.1
2019-04-20T07:17:26.551Z,11.1
2019-04-20T07:18:07.937Z,11.2
2019-04-20T07:19:00.623Z,11.3
2019-04-20T07:19:44.240Z,11.3
2019-04-20T07:20:50.010Z,11.4
2019-04-20T07:21:43.502Z,11.4
2019-04-20T07:23:21.195Z,11.4
2019-04-20T07:24:03.008Z,11.5
2019-04-20T07:24:56.263Z,11.5
2019-04-20T07:25:42.083Z,11.6
2019-04-20T07:26:28.908Z,11.6
2019-04-20T07:27:17.716Z,11.6
2019-04-20T07:28:10.897Z,11.6
2019-04-20T07:28:58.661Z,11.6
2019-04-20T07:29:51.290Z,11.7
2019-04-20T07:30:40.189Z,11.7
2019-04-20T07:31:22.598Z,11.8
2019-04-20T07:32:12.933Z,11.9
2019-04-20T07:33:08.381Z,12
2019-04-20T07:33:56.620Z,12
2019-04-20T07:34:51.150Z,12.1
2019-04-20T07:35:45.997Z,12.1
2019-04-20T07:36:32.090Z,12.1
2019-04-20T07:37:46.291Z,12.1
2019-04-20T07:38:30.550Z,12.2
2019-04-20T07:38:59.536Z,12.2
2019-04-20T07:39:53.366Z,12.2
2019-04-20T07:40:38.058Z,12.2
2019-04-20T07:41:32.727Z,12.3
2019-04-20T07:42:22.516Z,12.3
2019-04-20T07:43:02.386Z,12.3
2019-04-20T07:44:02.764Z,12.4
2019-04-20T07:44:54.665Z,12.4
2019-04-20T07:45:32.891Z,12.4
2019-04-20T07:46:40.529Z,12.4
2019-04-20T07:47:21.634Z,12.5
2019-04-20T07:48:10.711Z,12.5
2019-04-20T07:49:01.022Z,12.5
2019-04-20T07:49:45.540Z,12.6
2019-04-20T07:50:28.949Z,12.6
2019-04-20T07:51:16.066Z,12.6
2019-04-20T07:51:59.481Z,12.7
2019-04-20T07:53:01.395Z,12.8
2019-04-20T07:53:59.225Z,12.9
2019-04-20T07:55:09.748Z,12.9
2019-04-20T07:55:43.760Z,13
2019-04-20T07:56:30.233Z,13
2019-04-20T07:57:14.202Z,13.1
2019-04-20T07:58:01.224Z,13.1
2019-04-20T07:58:45.867Z,13.1
2019-04-20T07:59:43.467Z,13.2
2019-04-20T08:00:48.032Z,13.2
2019-04-20T08:01:36.014Z,13.3
2019-04-20T08:02:23.306Z,13.3
2019-04-20T08:03:16.171Z,13.3
2019-04-20T08:04:00.935Z,13.4
2019-04-20T08:04:42.088Z,13.5
2019-04-20T08:05:29.320Z,13.6
2019-04-20T08:06:16.275Z,13.7
2019-04-20T08:07:03.486Z,13.9
2019-04-20T08:07:59.754Z,14
2019-04-20T08:08:52.960Z,14.1
2019-04-20T08:09:37.843Z,14.2
2019-04-20T08:10:33.518Z,14.3
2019-04-20T08:11:19.742Z,14.4
2019-04-20T08:12:25.471Z,14.5
2019-04-20T08:13:56.681Z,15
2019-04-20T08:14:55.185Z,15.1
2019-04-20T08:16:37.706Z,15.3
2019-04-20T08:17:36.886Z,15.3
2019-04-20T08:18:06.138Z,15.5
2019-04-20T08:18:53.407Z,15.8
2019-04-20T08:19:45.068Z,16.1
2019-04-20T08:20:38.318Z,16.3
2019-04-20T08:21:28.256Z,16.5
2019-04-20T08:22:19.602Z,16.7
2019-04-20T08:23:04.513Z,16.8
2019-04-20T08:23:55.258Z,16.7
2019-04-20T08:24:42.517Z,16.8
2019-04-20T08:25:30.265Z,17
2019-04-20T08:26:16.109Z,17.1
2019-04-20T08:27:02.650Z,17.1
2019-04-20T08:27:48.824Z,17.1
2019-04-20T08:28:46.236Z,17
2019-04-20T08:29:42.251Z,17.1
2019-04-20T08:30:33.393Z,17.2
2019-04-20T08:31:24.213Z,17.3
2019-04-20T08:32:17.666Z,17.5
2019-04-20T08:33:02.372Z,17.6
2019-04-20T08:34:06.104Z,17.6
2019-04-20T08:34:53.197Z,17.6
2019-04-20T08:35:38.764Z,17.6
2019-04-20T08:36:32.964Z,17.8
2019-04-20T08:37:16.895Z,17.9
2019-04-20T08:38:36.483Z,18
2019-04-20T08:39:56.934Z,18.4
2019-04-20T08:40:43.377Z,18.5
2019-04-20T08:41:24.519Z,18.5
2019-04-20T08:42:15.977Z,18.5
2019-04-20T08:43:18.542Z,18.3
2019-04-20T08:43:58.347Z,18.2
2019-04-20T08:44:53.554Z,18
2019-04-20T08:45:41.386Z,17.9
2019-04-20T08:46:31.949Z,17.9
2019-04-20T08:47:27.077Z,17.8
2019-04-20T08:48:17.176Z,17.8
2019-04-20T08:49:01.306Z,17.7
2019-04-20T08:49:55.209Z,17.6
2019-04-20T08:50:32.509Z,17.6
2019-04-20T08:51:25.212Z,17.7
2019-04-20T08:52:36.525Z,17.7
2019-04-20T08:53:20.076Z,17.9
2019-04-20T08:53:55.941Z,17.9
2019-04-20T08:54:37.581Z,18
2019-04-20T08:55:37.055Z,18
2019-04-20T08:56:21.417Z,17.9
2019-04-20T08:57:02.941Z,17.9
2019-04-20T08:57:49.749Z,17.9
2019-04-20T08:58:41.421Z,18
2019-04-20T08:59:32.240Z,18
2019-04-20T09:00:25.690Z,18
2019-04-20T09:01:14.066Z,18.1
2019-04-20T09:02:04.910Z,18.2
2019-04-20T09:02:55.421Z,18.3
2019-04-20T09:03:49.510Z,18.3
2019-04-20T09:04:36.991Z,18.2
2019-04-20T09:05:30.130Z,18.2
2019-04-20T09:06:26.099Z,18.2
2019-04-20T09:07:08.223Z,18.2
2019-04-20T09:08:02.273Z,18.2
2019-04-20T09:08:50.199Z,18.2
2019-04-20T09:09:48.821Z,18.3
2019-04-20T09:10:42.045Z,18.4
2019-04-20T09:11:23.828Z,18.5
2019-04-20T09:12:14.319Z,18.6
2019-04-20T09:13:02.108Z,18.6
2019-04-20T09:13:45.949Z,18.6
2019-04-20T09:14:30.250Z,18.6
2019-04-20T09:15:21.084Z,18.7
2019-04-20T09:17:05.488Z,18.7
2019-04-20T09:17:54.699Z,18.8
2019-04-20T09:18:50.059Z,18.9
2019-04-20T09:19:39.754Z,18.9
2019-04-20T09:20:31.602Z,19
2019-04-20T09:21:21.968Z,19
2019-04-20T09:22:11.971Z,19
2019-04-20T09:23:06.676Z,19
2019-04-20T09:23:55.928Z,19
2019-04-20T09:24:50.805Z,19
2019-04-20T09:25:53.196Z,19
2019-04-20T09:26:26.425Z,19
2019-04-20T09:27:14.054Z,19
2019-04-20T09:27:59.621Z,19
2019-04-20T09:28:54.225Z,19.1
2019-04-20T09:29:40.312Z,19.1
2019-04-20T09:30:31.808Z,19.1
2019-04-20T09:31:19.743Z,19.2
2019-04-20T09:32:16.646Z,19.2
2019-04-20T09:33:08.997Z,19.2
2019-04-20T09:33:55.338Z,19.3
2019-04-20T09:34:52.976Z,19.3
2019-04-20T09:35:36.967Z,19.3
2019-04-20T09:36:23.515Z,19.4
2019-04-20T09:37:18.751Z,19.4
2019-04-20T09:38:04.755Z,19.5
2019-04-20T09:38:56.472Z,19.5
2019-04-20T09:40:34.802Z,19.6
2019-04-20T09:41:30.229Z,19.6
2019-04-20T09:42:01.578Z,19.6
2019-04-20T09:42:50.422Z,19.7
2019-04-20T09:43:41.070Z,19.7
2019-04-20T09:44:37.403Z,19.8
2019-04-20T09:45:27.305Z,19.8
2019-04-20T09:46:11.726Z,19.8
2019-04-20T09:47:03.224Z,19.9
2019-04-20T09:47:53.493Z,19.9
2019-04-20T09:48:47.324Z,19.9
2019-04-20T09:49:42.256Z,19.9
2019-04-20T09:50:37.493Z,20
2019-04-20T09:51:29.995Z,20
2019-04-20T09:52:13.145Z,20
2019-04-20T09:53:02.263Z,20
2019-04-20T09:53:50.262Z,20
2019-04-20T09:54:45.083Z,20.1
2019-04-20T09:55:31.060Z,20.1
2019-04-20T09:56:22.970Z,20.2
2019-04-20T09:57:18.993Z,20.2
2019-04-20T09:58:04.799Z,20.2
2019-04-20T09:59:00.574Z,20.3
2019-04-20T09:59:49.407Z,20.3
2019-04-20T10:00:36.806Z,20.4
2019-04-20T10:01:22.557Z,20.4
2019-04-20T10:02:07.620Z,20.4
2019-04-20T10:02:50.813Z,20.5
2019-04-20T10:03:40.836Z,20.5
2019-04-20T10:04:31.312Z,20.5
2019-04-20T10:05:20.463Z,20.5
2019-04-20T10:06:11.572Z,20.6
2019-04-20T10:07:06.585Z,20.7
2019-04-20T10:07:55.615Z,20.8
2019-04-20T10:08:49.094Z,20.8
2019-04-20T10:09:34.310Z,20.8
2019-04-20T10:10:28.658Z,20.9
2019-04-20T10:11:11.669Z,20.9
2019-04-20T10:12:01.641Z,21
2019-04-20T10:12:50.406Z,21
2019-04-20T10:13:40.515Z,21.1
2019-04-20T10:14:30.963Z,21.1
2019-04-20T10:15:23.353Z,21.1
2019-04-20T10:16:11.314Z,21.2
2019-04-20T10:17:01.996Z,21.2
2019-04-20T10:17:51.900Z,21.2
2019-04-20T10:18:45.413Z,21.3
2019-04-20T10:19:33.962Z,21.3
2019-04-20T10:20:27.283Z,21.3
2019-04-20T10:21:11.745Z,21.4
2019-04-20T10:22:02.494Z,21.4
2019-04-20T10:22:54.335Z,21.5
2019-04-20T10:23:42.532Z,21.5
2019-04-20T10:24:32.762Z,21.5
2019-04-20T10:25:22.544Z,21.6
2019-04-20T10:26:12.250Z,21.6
2019-04-20T10:27:02.985Z,21.7
2019-04-20T10:27:51.648Z,21.7
2019-04-20T10:28:41.774Z,21.7
2019-04-20T10:29:31.856Z,21.8
2019-04-20T10:30:22.639Z,21.8
2019-04-20T10:31:12.722Z,21.9
2019-04-20T10:32:06.683Z,21.9
2019-04-20T10:32:54.031Z,21.9
2019-04-20T10:33:41.776Z,22
2019-04-20T10:34:32.709Z,22
2019-04-20T10:35:21.579Z,22.1
2019-04-20T10:36:11.893Z,22.1
2019-04-20T10:37:01.698Z,22.2
2019-04-20T10:37:51.646Z,22.2
2019-04-20T10:38:42.356Z,22.2
2019-04-20T10:39:31.581Z,22.3
2019-04-20T10:40:37.496Z,22.3
2019-04-20T10:41:18.325Z,22.3
2019-04-20T10:42:04.130Z,22.4
2019-04-20T10:42:53.101Z,22.4
2019-04-20T10:43:42.774Z,22.5
2019-04-20T10:44:32.674Z,22.5
2019-04-20T10:45:21.628Z,22.6
2019-04-20T10:46:12.845Z,22.6
2019-04-20T10:47:02.871Z,22.5
2019-04-20T10:47:53.275Z,22.5
2019-04-20T10:48:47.331Z,22.5
2019-04-20T10:49:31.711Z,22.6
2019-04-20T10:50:22.902Z,22.6
2019-04-20T10:51:12.785Z,22.7
2019-04-20T10:52:01.923Z,22.8
2019-04-20T10:52:54.015Z,22.9
2019-04-20T10:53:42.350Z,23
2019-04-20T10:54:32.319Z,23
2019-04-20T10:55:21.563Z,23.1
2019-04-20T10:56:11.708Z,23.1
2019-04-20T10:57:01.593Z,23.2
2019-04-20T10:57:51.551Z,23.3
2019-04-20T10:58:41.549Z,23.4
2019-04-20T10:59:31.871Z,23.5
2019-04-20T11:00:21.695Z,23.5
2019-04-20T11:01:11.642Z,23.6
2019-04-20T11:02:01.612Z,23.6
2019-04-20T11:02:52.476Z,23.7
2019-04-20T11:03:42.714Z,23.8
2019-04-20T11:04:32.688Z,23.9
2019-04-20T11:05:24.929Z,23.9
2019-04-20T11:06:11.571Z,24
2019-04-20T11:07:02.916Z,24
2019-04-20T11:07:52.740Z,24.1
2019-04-20T11:08:42.724Z,24.2
2019-04-20T11:09:32.711Z,24.2
2019-04-20T11:10:28.499Z,24.3
2019-04-20T11:11:20.003Z,24.3
2019-04-20T11:12:04.073Z,24.3
2019-04-20T11:12:52.763Z,24.4
2019-04-20T11:13:43.420Z,24.4
2019-04-20T11:14:36.437Z,24.4
2019-04-20T11:15:24.136Z,24.5
2019-04-20T11:16:12.979Z,24.5
2019-04-20T11:17:02.993Z,24.6
2019-04-20T11:17:53.310Z,24.6
2019-04-20T11:18:43.264Z,24.6
2019-04-20T11:19:33.583Z,24.6
2019-04-20T11:20:23.437Z,24.6
2019-04-20T11:21:13.310Z,24.7
2019-04-20T11:22:04.181Z,24.7
2019-04-20T11:22:53.023Z,24.7
2019-04-20T11:23:44.473Z,24.7
2019-04-20T11:24:34.418Z,24.6
2019-04-20T11:25:24.253Z,24.7
2019-04-20T11:26:14.022Z,24.7
2019-04-20T11:27:04.488Z,24.7
2019-04-20T11:27:54.352Z,24.8
2019-04-20T11:28:44.141Z,24.8
2019-04-20T11:29:33.906Z,24.9
2019-04-20T11:30:23.304Z,24.9
2019-04-20T11:31:14.401Z,25
2019-04-20T11:32:03.254Z,25
2019-04-20T11:32:53.950Z,25
2019-04-20T11:33:43.379Z,25
2019-04-20T11:34:38.128Z,25
2019-04-20T11:35:30.190Z,25.1
2019-04-20T11:36:13.264Z,25.2
2019-04-20T11:37:03.452Z,25.2